Hovedside
METAR-TAF:

METAR-TAF

Lufthavner :

Pärnu lufthavn

Pärnu, Estland

breddegrad: 58-25-09N, lengdegrad: 024-28-22E, høyde over havet: 14 m

Gjeldene værobservasjon

Denne rapporten ble laget for 20 minutter siden, klokken 04:50 UTC
Vind 2 kt fra skiftende retning
Temperatur 12°C
Luftfuktighet 40%
Trykk 1022 hPa
Sikt 10 km eller mer
Få skyer i en høyde av 2600 ft
lett regn

METAR: EEPU 250450Z VRB02KT 9999 -RA FEW026 12/M01 Q1022

Tid: 08:10 (05:10 UTC)


TAF: fraværende

Værobservasjoner og værvarsel for over 4000 flyplasser (METAR- og TAF-rapporter).

Tilgjengelige stasjoner er representert av de røde og gule prikkene på kartet.

Hold musepekeren over prikken for å se navnet på stasjonen.

Klikk så for å se værobservasjoner og -varsler.

For å forandre kartet kan du klikke på den grønne knappen med svart kryss for å zoome inn, på den grønne knappen med strek for å zoome ut, eller på de grønne pilene for å se tilstøtende kart.


METAR-TAF: